createdAt,value
2018-12-13T00:00:56.870Z,1017.79
2018-12-13T00:01:56.844Z,1017.75
2018-12-13T00:02:56.819Z,1017.76
2018-12-13T00:03:56.791Z,1017.78
2018-12-13T00:04:56.768Z,1017.76
2018-12-13T00:05:56.739Z,1017.70
2018-12-13T00:06:56.713Z,1017.72
2018-12-13T00:07:56.686Z,1017.68
2018-12-13T00:08:56.658Z,1017.66
2018-12-13T00:09:56.632Z,1017.65
2018-12-13T00:10:56.605Z,1017.60
2018-12-13T00:11:56.579Z,1017.61
2018-12-13T00:12:56.552Z,1017.65
2018-12-13T00:13:56.525Z,1017.62
2018-12-13T00:14:56.499Z,1017.60
2018-12-13T00:15:56.471Z,1017.62
2018-12-13T00:16:56.445Z,1017.62
2018-12-13T00:17:56.419Z,1017.62
2018-12-13T00:18:56.392Z,1017.66
2018-12-13T00:19:56.366Z,1017.66
2018-12-13T00:20:56.338Z,1017.63
2018-12-13T00:21:56.314Z,1017.63
2018-12-13T00:22:56.287Z,1017.62
2018-12-13T00:23:56.260Z,1017.66
2018-12-13T00:24:56.232Z,1017.64
2018-12-13T00:25:56.205Z,1017.67
2018-12-13T00:26:56.179Z,1017.66
2018-12-13T00:27:56.157Z,1017.66
2018-12-13T00:28:56.126Z,1017.63
2018-12-13T00:29:56.099Z,1017.63
2018-12-13T00:30:56.073Z,1017.64
2018-12-13T00:31:56.045Z,1017.63
2018-12-13T00:32:56.021Z,1017.63
2018-12-13T00:33:55.991Z,1017.61
2018-12-13T00:34:55.967Z,1017.60
2018-12-13T00:35:55.940Z,1017.61
2018-12-13T00:36:55.914Z,1017.57
2018-12-13T00:37:55.888Z,1017.58
2018-12-13T00:38:55.859Z,1017.58
2018-12-13T00:39:55.833Z,1017.57
2018-12-13T00:40:55.806Z,1017.60
2018-12-13T00:41:55.781Z,1017.59
2018-12-13T00:42:55.755Z,1017.63
2018-12-13T00:43:55.725Z,1017.59
2018-12-13T00:44:55.701Z,1017.56
2018-12-13T00:45:55.679Z,1017.59
2018-12-13T00:46:55.649Z,1017.59
2018-12-13T00:47:55.621Z,1017.57
2018-12-13T00:48:55.595Z,1017.58
2018-12-13T00:49:55.568Z,1017.56
2018-12-13T00:50:55.542Z,1017.54
2018-12-13T00:51:55.521Z,1017.58
2018-12-13T00:52:55.492Z,1017.54
2018-12-13T00:53:55.461Z,1017.54
2018-12-13T00:54:55.435Z,1017.52
2018-12-13T00:55:55.415Z,1017.51
2018-12-13T00:56:55.381Z,1017.54
2018-12-13T00:57:55.356Z,1017.50
2018-12-13T00:58:55.329Z,1017.46
2018-12-13T00:59:55.302Z,1017.50
2018-12-13T01:00:55.276Z,1017.46
2018-12-13T01:01:55.253Z,1017.47
2018-12-13T01:02:55.226Z,1017.47
2018-12-13T01:03:55.195Z,1017.43
2018-12-13T01:04:55.171Z,1017.42
2018-12-13T01:05:55.146Z,1017.39
2018-12-13T01:06:55.118Z,1017.38
2018-12-13T01:07:55.091Z,1017.39
2018-12-13T01:08:55.063Z,1017.36
2018-12-13T01:09:55.036Z,1017.37
2018-12-13T01:10:55.014Z,1017.37
2018-12-13T01:11:54.984Z,1017.34
2018-12-13T01:12:54.958Z,1017.33
2018-12-13T01:13:54.932Z,1017.31
2018-12-13T01:14:54.906Z,1017.33
2018-12-13T01:15:54.879Z,1017.30
2018-12-13T01:16:54.853Z,1017.33
2018-12-13T01:17:54.828Z,1017.30
2018-12-13T01:18:54.800Z,1017.31
2018-12-13T01:19:54.772Z,1017.33
2018-12-13T01:20:54.747Z,1017.33
2018-12-13T01:21:54.718Z,1017.32
2018-12-13T01:22:54.693Z,1017.35
2018-12-13T01:23:54.666Z,1017.30
2018-12-13T01:24:54.640Z,1017.29
2018-12-13T01:25:54.619Z,1017.28
2018-12-13T01:26:54.587Z,1017.26
2018-12-13T01:27:54.560Z,1017.28
2018-12-13T01:28:54.535Z,1017.25
2018-12-13T01:29:54.507Z,1017.26
2018-12-13T01:30:54.481Z,1017.24
2018-12-13T01:31:54.457Z,1017.23
2018-12-13T01:32:54.431Z,1017.21
2018-12-13T01:33:54.403Z,1017.24
2018-12-13T01:34:54.375Z,1017.28
2018-12-13T01:35:54.349Z,1017.28
2018-12-13T01:36:54.324Z,1017.28
2018-12-13T01:37:54.296Z,1017.25
2018-12-13T01:38:54.270Z,1017.29
2018-12-13T01:39:54.242Z,1017.25
2018-12-13T01:40:54.217Z,1017.24
2018-12-13T01:41:54.190Z,1017.26
2018-12-13T01:42:54.163Z,1017.26
2018-12-13T01:43:54.136Z,1017.28
2018-12-13T01:44:54.110Z,1017.23
2018-12-13T01:45:54.085Z,1017.25
2018-12-13T01:46:54.057Z,1017.27
2018-12-13T01:47:54.030Z,1017.23
2018-12-13T01:48:54.004Z,1017.19
2018-12-13T01:49:53.980Z,1017.19
2018-12-13T01:50:53.951Z,1017.24
2018-12-13T01:51:53.923Z,1017.26
2018-12-13T01:52:53.897Z,1017.27
2018-12-13T01:53:53.871Z,1017.24
2018-12-13T01:54:53.846Z,1017.23
2018-12-13T01:55:53.817Z,1017.27
2018-12-13T01:56:53.792Z,1017.19
2018-12-13T01:57:53.765Z,1017.22
2018-12-13T01:58:53.740Z,1017.20
2018-12-13T01:59:53.711Z,1017.19
2018-12-13T02:00:53.685Z,1017.18
2018-12-13T02:01:53.659Z,1017.16
2018-12-13T02:02:53.634Z,1017.22
2018-12-13T02:03:53.609Z,1017.23
2018-12-13T02:04:53.578Z,1017.16
2018-12-13T02:05:53.551Z,1017.19
2018-12-13T02:06:58.717Z,1017.17
2018-12-13T02:07:53.498Z,1017.17
2018-12-13T02:08:53.472Z,1017.17
2018-12-13T02:09:53.447Z,1017.18
2018-12-13T02:10:53.419Z,1017.15
2018-12-13T02:11:53.391Z,1017.15
2018-12-13T02:12:53.364Z,1017.15
2018-12-13T02:13:53.340Z,1017.11
2018-12-13T02:14:53.313Z,1017.13
2018-12-13T02:15:53.284Z,1017.08
2018-12-13T02:16:53.261Z,1017.11
2018-12-13T02:17:53.231Z,1017.08
2018-12-13T02:18:53.205Z,1017.09
2018-12-13T02:19:53.178Z,1017.07
2018-12-13T02:20:53.150Z,1017.07
2018-12-13T02:21:53.125Z,1017.00
2018-12-13T02:22:53.100Z,1017.06
2018-12-13T02:23:53.069Z,1017.04
2018-12-13T02:24:53.043Z,1017.04
2018-12-13T02:25:53.016Z,1017.00
2018-12-13T02:26:52.989Z,1016.97
2018-12-13T02:27:52.962Z,1016.97
2018-12-13T02:28:52.935Z,1016.97
2018-12-13T02:29:52.909Z,1016.97
2018-12-13T02:30:52.882Z,1016.97
2018-12-13T02:31:52.853Z,1016.94
2018-12-13T02:32:52.828Z,1016.95
2018-12-13T02:33:52.803Z,1016.97
2018-12-13T02:34:52.775Z,1016.95
2018-12-13T02:35:52.747Z,1016.92
2018-12-13T02:36:52.719Z,1016.90
2018-12-13T02:37:52.693Z,1016.93
2018-12-13T02:38:52.666Z,1016.91
2018-12-13T02:39:52.636Z,1016.95
2018-12-13T02:40:52.611Z,1016.97
2018-12-13T02:41:52.586Z,1016.94
2018-12-13T02:42:52.558Z,1016.92
2018-12-13T02:43:52.532Z,1016.96
2018-12-13T02:44:52.504Z,1016.91
2018-12-13T02:45:52.477Z,1016.91
2018-12-13T02:46:52.449Z,1016.90
2018-12-13T02:47:52.421Z,1016.88
2018-12-13T02:48:52.393Z,1016.82
2018-12-13T02:49:52.365Z,1016.85
2018-12-13T02:50:52.339Z,1016.84
2018-12-13T02:51:52.313Z,1016.85
2018-12-13T02:52:52.285Z,1016.84
2018-12-13T02:53:52.258Z,1016.83
2018-12-13T02:54:52.231Z,1016.84
2018-12-13T02:55:52.202Z,1016.82
2018-12-13T02:56:52.176Z,1016.78
2018-12-13T02:57:52.150Z,1016.80
2018-12-13T02:58:52.122Z,1016.78
2018-12-13T02:59:52.097Z,1016.80
2018-12-13T03:00:52.067Z,1016.78
2018-12-13T03:01:52.042Z,1016.76
2018-12-13T03:02:52.014Z,1016.74
2018-12-13T03:03:51.985Z,1016.76
2018-12-13T03:04:51.958Z,1016.80
2018-12-13T03:05:51.931Z,1016.78
2018-12-13T03:06:51.904Z,1016.77
2018-12-13T03:07:51.877Z,1016.78
2018-12-13T03:08:51.851Z,1016.80
2018-12-13T03:09:51.822Z,1016.77
2018-12-13T03:10:51.796Z,1016.78
2018-12-13T03:11:51.768Z,1016.76
2018-12-13T03:12:51.773Z,1016.80
2018-12-13T03:13:51.716Z,1016.80
2018-12-13T03:14:51.686Z,1016.79
2018-12-13T03:15:51.657Z,1016.82
2018-12-13T03:16:51.633Z,1016.80
2018-12-13T03:17:51.603Z,1016.80
2018-12-13T03:18:51.578Z,1016.80
2018-12-13T03:19:51.547Z,1016.82
2018-12-13T03:20:51.521Z,1016.79
2018-12-13T03:21:51.496Z,1016.78
2018-12-13T03:22:51.466Z,1016.79
2018-12-13T03:23:51.440Z,1016.77
2018-12-13T03:24:51.412Z,1016.78
2018-12-13T03:25:51.386Z,1016.79
2018-12-13T03:26:51.357Z,1016.73
2018-12-13T03:27:51.330Z,1016.71
2018-12-13T03:28:51.302Z,1016.73
2018-12-13T03:29:51.278Z,1016.71
2018-12-13T03:30:51.249Z,1016.73
2018-12-13T03:31:51.236Z,1016.70
2018-12-13T03:32:51.205Z,1016.68
2018-12-13T03:33:51.166Z,1016.74
2018-12-13T03:34:51.139Z,1016.72
2018-12-13T03:35:51.110Z,1016.66
2018-12-13T03:36:51.083Z,1016.61
2018-12-13T03:37:51.057Z,1016.60
2018-12-13T03:38:51.030Z,1016.58
2018-12-13T03:39:51.009Z,1016.59
2018-12-13T03:40:50.975Z,1016.58
2018-12-13T03:41:50.950Z,1016.58
2018-12-13T03:42:50.920Z,1016.57
2018-12-13T03:43:50.891Z,1016.55
2018-12-13T03:44:50.864Z,1016.49
2018-12-13T03:45:50.839Z,1016.58
2018-12-13T03:46:50.809Z,1016.57
2018-12-13T03:47:50.783Z,1016.51
2018-12-13T03:48:50.758Z,1016.55
2018-12-13T03:49:50.726Z,1016.53
2018-12-13T03:50:50.699Z,1016.57
2018-12-13T03:51:50.671Z,1016.47
2018-12-13T03:52:50.645Z,1016.54
2018-12-13T03:53:50.615Z,1016.55
2018-12-13T03:54:50.592Z,1016.53
2018-12-13T03:55:50.592Z,1016.54
2018-12-13T03:56:50.537Z,1016.52
2018-12-13T03:57:50.506Z,1016.50
2018-12-13T03:58:50.479Z,1016.50
2018-12-13T03:59:50.451Z,1016.50
2018-12-13T04:00:50.427Z,1016.46
2018-12-13T04:01:50.415Z,1016.51
2018-12-13T04:02:50.370Z,1016.52
2018-12-13T04:03:50.346Z,1016.49
2018-12-13T04:04:50.314Z,1016.50
2018-12-13T04:05:50.306Z,1016.52
2018-12-13T04:06:50.259Z,1016.48
2018-12-13T04:07:50.236Z,1016.48
2018-12-13T04:08:50.204Z,1016.47
2018-12-13T04:09:50.176Z,1016.48
2018-12-13T04:10:50.150Z,1016.45
2018-12-13T04:11:50.120Z,1016.47
2018-12-13T04:12:50.099Z,1016.46
2018-12-13T04:13:50.067Z,1016.52
2018-12-13T04:14:50.041Z,1016.46
2018-12-13T04:15:50.010Z,1016.47
2018-12-13T04:16:49.986Z,1016.45
2018-12-13T04:17:49.957Z,1016.44
2018-12-13T04:18:49.930Z,1016.41
2018-12-13T04:19:49.901Z,1016.40
2018-12-13T04:20:49.875Z,1016.42
2018-12-13T04:21:49.847Z,1016.41
2018-12-13T04:22:49.819Z,1016.40
2018-12-13T04:23:49.790Z,1016.39
2018-12-13T04:24:49.764Z,1016.42
2018-12-13T04:25:49.739Z,1016.36
2018-12-13T04:26:49.709Z,1016.35
2018-12-13T04:27:49.682Z,1016.32
2018-12-13T04:28:49.653Z,1016.35
2018-12-13T04:29:49.626Z,1016.34
2018-12-13T04:30:49.598Z,1016.34
2018-12-13T04:31:49.570Z,1016.33
2018-12-13T04:32:49.542Z,1016.30
2018-12-13T04:33:49.516Z,1016.30
2018-12-13T04:34:49.487Z,1016.31
2018-12-13T04:35:49.459Z,1016.32
2018-12-13T04:36:49.433Z,1016.31
2018-12-13T04:37:49.406Z,1016.33
2018-12-13T04:38:49.378Z,1016.35
2018-12-13T04:39:49.348Z,1016.36
2018-12-13T04:40:49.323Z,1016.35
2018-12-13T04:41:49.296Z,1016.34
2018-12-13T04:42:49.267Z,1016.36
2018-12-13T04:43:49.240Z,1016.35
2018-12-13T04:44:49.212Z,1016.30
2018-12-13T04:45:49.183Z,1016.31
2018-12-13T04:46:49.159Z,1016.30
2018-12-13T04:47:49.128Z,1016.29
2018-12-13T04:48:49.105Z,1016.27
2018-12-13T04:49:49.074Z,1016.25
2018-12-13T04:50:49.046Z,1016.27
2018-12-13T04:51:49.019Z,1016.28
2018-12-13T04:52:48.994Z,1016.26
2018-12-13T04:53:48.976Z,1016.26
2018-12-13T04:54:48.938Z,1016.26
2018-12-13T04:55:48.907Z,1016.23
2018-12-13T04:56:48.880Z,1016.24
2018-12-13T04:57:48.852Z,1016.23
2018-12-13T04:58:48.825Z,1016.22
2018-12-13T04:59:48.796Z,1016.24
2018-12-13T05:00:48.769Z,1016.27
2018-12-13T05:01:48.741Z,1016.28
2018-12-13T05:02:48.713Z,1016.28
2018-12-13T05:03:48.688Z,1016.29
2018-12-13T05:04:48.658Z,1016.29
2018-12-13T05:05:48.631Z,1016.24
2018-12-13T05:06:48.603Z,1016.28
2018-12-13T05:07:48.575Z,1016.29
2018-12-13T05:08:48.550Z,1016.21
2018-12-13T05:09:48.520Z,1016.21
2018-12-13T05:10:48.492Z,1016.19
2018-12-13T05:11:48.471Z,1016.22
2018-12-13T05:12:48.440Z,1016.19
2018-12-13T05:13:48.409Z,1016.23
2018-12-13T05:14:48.381Z,1016.20
2018-12-13T05:15:48.355Z,1016.20
2018-12-13T05:16:48.325Z,1016.18
2018-12-13T05:17:48.298Z,1016.15
2018-12-13T05:18:48.271Z,1016.15
2018-12-13T05:19:48.243Z,1016.17
2018-12-13T05:20:48.225Z,1016.13
2018-12-13T05:21:48.187Z,1016.12
2018-12-13T05:22:48.160Z,1016.12
2018-12-13T05:23:48.131Z,1016.13
2018-12-13T05:24:48.104Z,1016.12
2018-12-13T05:25:48.076Z,1016.11
2018-12-13T05:26:48.050Z,1016.05
2018-12-13T05:27:48.023Z,1016.04
2018-12-13T05:28:47.992Z,1016.06
2018-12-13T05:29:47.966Z,1016.07
2018-12-13T05:30:47.938Z,1016.05
2018-12-13T05:31:47.911Z,1016.06
2018-12-13T05:32:47.881Z,1016.09
2018-12-13T05:33:47.862Z,1016.10
2018-12-13T05:34:47.825Z,1016.05
2018-12-13T05:35:47.798Z,1016.09
2018-12-13T05:36:47.768Z,1016.08
2018-12-13T05:37:48.379Z,1016.01
2018-12-13T05:38:47.715Z,1016.01
2018-12-13T05:39:47.686Z,1015.97
2018-12-13T05:40:47.660Z,1016.02
2018-12-13T05:41:47.631Z,1015.96
2018-12-13T05:42:47.603Z,1015.96
2018-12-13T05:43:47.585Z,1015.96
2018-12-13T05:44:47.548Z,1015.92
2018-12-13T05:45:47.521Z,1015.90
2018-12-13T05:46:47.495Z,1015.92
2018-12-13T05:47:47.464Z,1015.88
2018-12-13T05:48:47.444Z,1015.90
2018-12-13T05:49:47.416Z,1015.90
2018-12-13T05:50:47.444Z,1015.92
2018-12-13T05:51:47.352Z,1015.90
2018-12-13T05:52:47.324Z,1015.91
2018-12-13T05:53:47.298Z,1015.90
2018-12-13T05:54:47.269Z,1015.93
2018-12-13T05:55:47.248Z,1015.92
2018-12-13T05:56:47.213Z,1015.92
2018-12-13T05:57:47.187Z,1015.97
2018-12-13T05:58:47.164Z,1015.99
2018-12-13T05:59:47.130Z,1015.97
2018-12-13T06:00:47.103Z,1016.01
2018-12-13T06:01:47.075Z,1016.00
2018-12-13T06:02:47.046Z,1016.00
2018-12-13T06:03:47.018Z,1015.97
2018-12-13T06:04:46.989Z,1015.98
2018-12-13T06:05:46.963Z,1015.97
2018-12-13T06:06:47.926Z,1016.01
2018-12-13T06:07:46.907Z,1016.04
2018-12-13T06:08:46.881Z,1016.03
2018-12-13T06:09:46.850Z,1016.01
2018-12-13T06:10:46.822Z,1016.03
2018-12-13T06:11:46.795Z,1016.02
2018-12-13T06:12:46.766Z,1015.99
2018-12-13T06:13:46.744Z,1016.00
2018-12-13T06:14:46.711Z,1016.05
2018-12-13T06:15:46.683Z,1016.06
2018-12-13T06:16:46.654Z,1016.10
2018-12-13T06:17:46.629Z,1016.10
2018-12-13T06:18:46.598Z,1016.08
2018-12-13T06:19:46.569Z,1016.09
2018-12-13T06:20:46.542Z,1016.10
2018-12-13T06:21:46.517Z,1016.15
2018-12-13T06:22:46.487Z,1016.13
2018-12-13T06:23:46.459Z,1016.20
2018-12-13T06:24:46.435Z,1016.17
2018-12-13T06:25:46.403Z,1016.14
2018-12-13T06:26:46.375Z,1016.12
2018-12-13T06:27:46.348Z,1016.16
2018-12-13T06:28:46.319Z,1016.19
2018-12-13T06:29:48.999Z,1016.15
2018-12-13T06:30:46.263Z,1016.16
2018-12-13T06:31:46.234Z,1016.20
2018-12-13T06:32:46.212Z,1016.21
2018-12-13T06:33:46.188Z,1016.21
2018-12-13T06:34:46.158Z,1016.19
2018-12-13T06:35:46.123Z,1016.19
2018-12-13T06:36:46.126Z,1016.25
2018-12-13T06:37:46.067Z,1016.25
2018-12-13T06:38:46.038Z,1016.24
2018-12-13T06:39:46.009Z,1016.24
2018-12-13T06:40:45.982Z,1016.29
2018-12-13T06:41:45.956Z,1016.29
2018-12-13T06:42:45.926Z,1016.29
2018-12-13T06:43:45.897Z,1016.32
2018-12-13T06:44:45.871Z,1016.31
2018-12-13T06:45:45.841Z,1016.35
2018-12-13T06:46:45.816Z,1016.39
2018-12-13T06:47:45.786Z,1016.38
2018-12-13T06:48:45.760Z,1016.34
2018-12-13T06:49:45.731Z,1016.32
2018-12-13T06:50:45.703Z,1016.36
2018-12-13T06:51:45.674Z,1016.34
2018-12-13T06:52:45.645Z,1016.31
2018-12-13T06:53:45.616Z,1016.32
2018-12-13T06:54:45.593Z,1016.27
2018-12-13T06:55:45.560Z,1016.30
2018-12-13T06:56:45.547Z,1016.34
2018-12-13T06:57:45.505Z,1016.35
2018-12-13T06:58:45.486Z,1016.30
2018-12-13T06:59:45.448Z,1016.36
2018-12-13T07:00:45.419Z,1016.31
2018-12-13T07:01:45.391Z,1016.34
2018-12-13T07:02:45.363Z,1016.31
2018-12-13T07:03:45.334Z,1016.35
2018-12-13T07:04:45.309Z,1016.34
2018-12-13T07:05:45.279Z,1016.35
2018-12-13T07:06:45.251Z,1016.36
2018-12-13T07:07:45.243Z,1016.36
2018-12-13T07:08:45.194Z,1016.40
2018-12-13T07:09:45.165Z,1016.37
2018-12-13T07:10:45.140Z,1016.38
2018-12-13T07:11:45.115Z,1016.36
2018-12-13T07:12:45.081Z,1016.37
2018-12-13T07:13:45.052Z,1016.40
2018-12-13T07:14:45.027Z,1016.39
2018-12-13T07:15:45.000Z,1016.36
2018-12-13T07:16:44.969Z,1016.39
2018-12-13T07:17:44.940Z,1016.37
2018-12-13T07:18:44.913Z,1016.37
2018-12-13T07:19:44.883Z,1016.36
2018-12-13T07:20:44.856Z,1016.37
2018-12-13T07:21:44.828Z,1016.36
2018-12-13T07:22:44.800Z,1016.39
2018-12-13T07:23:44.790Z,1016.35
2018-12-13T07:24:44.743Z,1016.38
2018-12-13T07:25:44.717Z,1016.38
2018-12-13T07:26:44.690Z,1016.38
2018-12-13T07:27:44.660Z,1016.41
2018-12-13T07:28:44.630Z,1016.39
2018-12-13T07:29:44.601Z,1016.42
2018-12-13T07:30:44.583Z,1016.41
2018-12-13T07:31:44.546Z,1016.46
2018-12-13T07:32:44.517Z,1016.40
2018-12-13T07:33:44.489Z,1016.45
2018-12-13T07:34:44.461Z,1016.40
2018-12-13T07:35:44.432Z,1016.42
2018-12-13T07:36:44.407Z,1016.41
2018-12-13T07:37:44.379Z,1016.43
2018-12-13T07:38:44.355Z,1016.44
2018-12-13T07:39:44.322Z,1016.42
2018-12-13T07:40:44.291Z,1016.45
2018-12-13T07:41:44.266Z,1016.40
2018-12-13T07:42:44.237Z,1016.46
2018-12-13T07:43:44.207Z,1016.43
2018-12-13T07:44:44.179Z,1016.43
2018-12-13T07:45:44.151Z,1016.44
2018-12-13T07:46:44.122Z,1016.46
2018-12-13T07:47:44.096Z,1016.50
2018-12-13T07:48:44.071Z,1016.47
2018-12-13T07:49:44.036Z,1016.51
2018-12-13T07:50:44.009Z,1016.47
2018-12-13T07:51:43.982Z,1016.51
2018-12-13T07:52:43.953Z,1016.52
2018-12-13T07:53:43.924Z,1016.51
2018-12-13T07:54:43.896Z,1016.49
2018-12-13T07:55:43.867Z,1016.44
2018-12-13T07:56:43.839Z,1016.46
2018-12-13T07:57:43.815Z,1016.43
2018-12-13T07:58:43.783Z,1016.44
2018-12-13T07:59:43.755Z,1016.44
2018-12-13T08:00:43.727Z,1016.42
2018-12-13T08:01:43.697Z,1016.45
2018-12-13T08:02:43.670Z,1016.44
2018-12-13T08:03:43.641Z,1016.43
2018-12-13T08:04:43.615Z,1016.49
2018-12-13T08:05:43.589Z,1016.47
2018-12-13T08:06:43.562Z,1016.43
2018-12-13T08:07:43.530Z,1016.44
2018-12-13T08:08:43.501Z,1016.46
2018-12-13T08:09:43.476Z,1016.43
2018-12-13T08:10:43.444Z,1016.44
2018-12-13T08:11:43.416Z,1016.41
2018-12-13T08:12:43.388Z,1016.42
2018-12-13T08:13:43.360Z,1016.42
2018-12-13T08:14:43.331Z,1016.41
2018-12-13T08:15:43.307Z,1016.37
2018-12-13T08:16:43.276Z,1016.37
2018-12-13T08:17:43.246Z,1016.39
2018-12-13T08:18:43.219Z,1016.38
2018-12-13T08:19:43.194Z,1016.42
2018-12-13T08:20:43.169Z,1016.42
2018-12-13T08:21:43.134Z,1016.42
2018-12-13T08:22:43.109Z,1016.42
2018-12-13T08:23:43.080Z,1016.40
2018-12-13T08:24:43.051Z,1016.38
2018-12-13T08:25:43.024Z,1016.38
2018-12-13T08:26:42.998Z,1016.38
2018-12-13T08:27:42.967Z,1016.35
2018-12-13T08:28:42.938Z,1016.40
2018-12-13T08:29:42.912Z,1016.34
2018-12-13T08:30:42.883Z,1016.34
2018-12-13T08:31:42.858Z,1016.35
2018-12-13T08:32:42.826Z,1016.39
2018-12-13T08:33:42.800Z,1016.30
2018-12-13T08:34:42.772Z,1016.36
2018-12-13T08:35:42.744Z,1016.35
2018-12-13T08:36:42.714Z,1016.35
2018-12-13T08:37:42.687Z,1016.38
2018-12-13T08:38:42.662Z,1016.34
2018-12-13T08:39:42.633Z,1016.34
2018-12-13T08:40:42.605Z,1016.35
2018-12-13T08:41:42.577Z,1016.33
2018-12-13T08:42:42.550Z,1016.35
2018-12-13T08:43:42.521Z,1016.40
2018-12-13T08:44:42.493Z,1016.37
2018-12-13T08:45:42.466Z,1016.40
2018-12-13T08:46:42.439Z,1016.35
2018-12-13T08:47:42.412Z,1016.41
2018-12-13T08:48:42.384Z,1016.39
2018-12-13T08:49:42.356Z,1016.41
2018-12-13T08:50:42.330Z,1016.41
2018-12-13T08:51:42.301Z,1016.40
2018-12-13T08:52:42.273Z,1016.37
2018-12-13T08:53:42.247Z,1016.31
2018-12-13T08:54:42.219Z,1016.34
2018-12-13T08:55:42.195Z,1016.33
2018-12-13T08:56:42.163Z,1016.35
2018-12-13T08:57:42.138Z,1016.34
2018-12-13T08:58:42.109Z,1016.32
2018-12-13T08:59:42.081Z,1016.32
2018-12-13T09:00:42.073Z,1016.33
2018-12-13T09:01:42.027Z,1016.33
2018-12-13T09:02:41.999Z,1016.32
2018-12-13T09:03:41.972Z,1016.31
2018-12-13T09:04:41.946Z,1016.31
2018-12-13T09:05:41.918Z,1016.30
2018-12-13T09:06:41.890Z,1016.27
2018-12-13T09:07:41.862Z,1016.27
2018-12-13T09:08:41.834Z,1016.31
2018-12-13T09:09:41.808Z,1016.34
2018-12-13T09:10:41.780Z,1016.33
2018-12-13T09:11:41.754Z,1016.35
2018-12-13T09:12:41.726Z,1016.37
2018-12-13T09:13:41.698Z,1016.35
2018-12-13T09:14:41.673Z,1016.34
2018-12-13T09:15:41.643Z,1016.37
2018-12-13T09:16:41.616Z,1016.40
2018-12-13T09:17:41.588Z,1016.38
2018-12-13T09:18:41.562Z,1016.34
2018-12-13T09:19:41.535Z,1016.37
2018-12-13T09:20:42.023Z,1016.42
2018-12-13T09:21:41.480Z,1016.34
2018-12-13T09:22:41.454Z,1016.42
2018-12-13T09:23:41.424Z,1016.40
2018-12-13T09:24:41.396Z,1016.37
2018-12-13T09:25:41.370Z,1016.38
2018-12-13T09:26:41.343Z,1016.42
2018-12-13T09:27:41.316Z,1016.44
2018-12-13T09:28:41.288Z,1016.44
2018-12-13T09:29:41.261Z,1016.43
2018-12-13T09:30:41.237Z,1016.40
2018-12-13T09:31:41.206Z,1016.42
2018-12-13T09:32:41.577Z,1016.46
2018-12-13T09:33:41.155Z,1016.45
2018-12-13T09:34:41.127Z,1016.43
2018-12-13T09:35:41.100Z,1016.46
2018-12-13T09:36:41.070Z,1016.45
2018-12-13T09:37:47.302Z,1016.42
2018-12-13T09:38:41.092Z,1016.40
2018-12-13T09:39:40.991Z,1016.47
2018-12-13T09:40:40.965Z,1016.45
2018-12-13T09:41:40.936Z,1016.47
2018-12-13T09:42:40.914Z,1016.43
2018-12-13T09:43:40.886Z,1016.42
2018-12-13T09:44:40.854Z,1016.42
2018-12-13T09:45:40.828Z,1016.43
2018-12-13T09:46:40.802Z,1016.44
2018-12-13T09:47:40.774Z,1016.43
2018-12-13T09:48:40.747Z,1016.44
2018-12-13T09:49:40.720Z,1016.47
2018-12-13T09:50:40.696Z,1016.45
2018-12-13T09:51:40.665Z,1016.47
2018-12-13T09:52:40.639Z,1016.50
2018-12-13T09:53:40.612Z,1016.47
2018-12-13T09:54:40.588Z,1016.50
2018-12-13T09:55:40.558Z,1016.50
2018-12-13T09:56:40.532Z,1016.51
2018-12-13T09:57:40.510Z,1016.51
2018-12-13T09:58:40.478Z,1016.50
2018-12-13T09:59:40.452Z,1016.48
2018-12-13T10:00:40.425Z,1016.48
2018-12-13T10:01:40.399Z,1016.51
2018-12-13T10:02:40.372Z,1016.47
2018-12-13T10:03:40.347Z,1016.47
2018-12-13T10:04:40.320Z,1016.43
2018-12-13T10:05:40.293Z,1016.41
2018-12-13T10:06:40.266Z,1016.45
2018-12-13T10:07:40.239Z,1016.39
2018-12-13T10:08:46.164Z,1016.39
2018-12-13T10:09:40.197Z,1016.42
2018-12-13T10:10:40.162Z,1016.42
2018-12-13T10:11:40.136Z,1016.44
2018-12-13T10:12:40.109Z,1016.34
2018-12-13T10:13:40.081Z,1016.36
2018-12-13T10:14:40.056Z,1016.34
2018-12-13T10:15:40.054Z,1016.37
2018-12-13T10:16:40.006Z,1016.37
2018-12-13T10:17:39.980Z,1016.32
2018-12-13T10:18:39.951Z,1016.31
2018-12-13T10:19:39.924Z,1016.33
2018-12-13T10:20:39.907Z,1016.28
2018-12-13T10:21:39.873Z,1016.31
2018-12-13T10:22:39.846Z,1016.32
2018-12-13T10:23:39.821Z,1016.32
2018-12-13T10:24:39.795Z,1016.31
2018-12-13T10:25:39.770Z,1016.35
2018-12-13T10:26:39.741Z,1016.38
2018-12-13T10:27:39.715Z,1016.39
2018-12-13T10:28:39.690Z,1016.41
2018-12-13T10:29:39.664Z,1016.36
2018-12-13T10:30:39.639Z,1016.40
2018-12-13T10:31:39.612Z,1016.38
2018-12-13T10:32:39.587Z,1016.37
2018-12-13T10:33:39.560Z,1016.39
2018-12-13T10:34:39.535Z,1016.40
2018-12-13T10:35:39.508Z,1016.37
2018-12-13T10:36:39.486Z,1016.33
2018-12-13T10:37:39.459Z,1016.36
2018-12-13T10:38:39.433Z,1016.33
2018-12-13T10:39:39.405Z,1016.31
2018-12-13T10:40:39.381Z,1016.31
2018-12-13T10:41:39.357Z,1016.35
2018-12-13T10:42:39.331Z,1016.34
2018-12-13T10:43:39.303Z,1016.26
2018-12-13T10:44:39.278Z,1016.25
2018-12-13T10:45:39.253Z,1016.21
2018-12-13T10:46:39.226Z,1016.19
2018-12-13T10:47:39.200Z,1016.17
2018-12-13T10:48:39.177Z,1016.11
2018-12-13T10:49:39.158Z,1016.10
2018-12-13T10:50:39.125Z,1016.12
2018-12-13T10:51:39.098Z,1016.11
2018-12-13T10:52:39.073Z,1016.13
2018-12-13T10:53:39.051Z,1016.13
2018-12-13T10:54:39.026Z,1016.12
2018-12-13T10:55:39.030Z,1016.08
2018-12-13T10:56:38.973Z,1016.07
2018-12-13T10:57:38.949Z,1016.03
2018-12-13T10:58:38.928Z,1016.02
2018-12-13T10:59:38.895Z,1016.00
2018-12-13T11:00:38.872Z,1016.00
2018-12-13T11:01:38.845Z,1016.05
2018-12-13T11:02:38.820Z,1016.00
2018-12-13T11:03:38.793Z,1016.03
2018-12-13T11:04:38.780Z,1016.02
2018-12-13T11:05:38.746Z,1016.00
2018-12-13T11:06:38.721Z,1016.00
2018-12-13T11:07:38.693Z,1015.99
2018-12-13T11:08:38.671Z,1015.92
2018-12-13T11:09:38.643Z,1015.92
2018-12-13T11:10:38.619Z,1015.91
2018-12-13T11:11:38.592Z,1015.91
2018-12-13T11:12:38.568Z,1015.85
2018-12-13T11:13:38.542Z,1015.87
2018-12-13T11:14:38.520Z,1015.86
2018-12-13T11:15:39.861Z,1015.86
2018-12-13T11:16:38.469Z,1015.84
2018-12-13T11:17:38.447Z,1015.83
2018-12-13T11:18:38.417Z,1015.79
2018-12-13T11:19:38.389Z,1015.77
2018-12-13T11:20:38.423Z,1015.75
2018-12-13T11:21:38.340Z,1015.78
2018-12-13T11:22:38.314Z,1015.81
2018-12-13T11:23:38.287Z,1015.81
2018-12-13T11:24:38.263Z,1015.82
2018-12-13T11:25:38.239Z,1015.86
2018-12-13T11:26:38.212Z,1015.83
2018-12-13T11:27:38.187Z,1015.82
2018-12-13T11:28:38.161Z,1015.82
2018-12-13T11:29:38.137Z,1015.80
2018-12-13T11:30:38.113Z,1015.84
2018-12-13T11:31:38.091Z,1015.80
2018-12-13T11:32:38.061Z,1015.80
2018-12-13T11:33:38.036Z,1015.76
2018-12-13T11:34:38.010Z,1015.79
2018-12-13T11:35:37.984Z,1015.77
2018-12-13T11:36:37.960Z,1015.78
2018-12-13T11:37:37.935Z,1015.72
2018-12-13T11:38:37.909Z,1015.75
2018-12-13T11:39:37.884Z,1015.66
2018-12-13T11:40:37.860Z,1015.72
2018-12-13T11:41:37.837Z,1015.74
2018-12-13T11:42:37.810Z,1015.64
2018-12-13T11:43:37.785Z,1015.66
2018-12-13T11:44:37.763Z,1015.65
2018-12-13T11:45:37.759Z,1015.62
2018-12-13T11:46:37.711Z,1015.62
2018-12-13T11:47:37.683Z,1015.60
2018-12-13T11:48:37.658Z,1015.60
2018-12-13T11:49:37.636Z,1015.67
2018-12-13T11:50:37.612Z,1015.61
2018-12-13T11:51:37.583Z,1015.57
2018-12-13T11:52:37.558Z,1015.54
2018-12-13T11:53:37.534Z,1015.52
2018-12-13T11:54:37.509Z,1015.52
2018-12-13T11:55:37.484Z,1015.48
2018-12-13T11:56:37.459Z,1015.50
2018-12-13T11:57:37.435Z,1015.45
2018-12-13T11:58:37.412Z,1015.44
2018-12-13T11:59:37.385Z,1015.46
2018-12-13T12:00:37.360Z,1015.38
2018-12-13T12:01:37.334Z,1015.36
2018-12-13T12:02:37.310Z,1015.33
2018-12-13T12:03:37.285Z,1015.30
2018-12-13T12:04:37.259Z,1015.32
2018-12-13T12:05:37.235Z,1015.30